sensor_id;sensor_type;location;lat;lon;timestamp;P1;durP1;ratioP1;P2;durP2;ratioP2
72941;SDS011;69665;55.822;37.330;2023-08-06T00:00:38;12.82;;;7.20;;
72941;SDS011;69665;55.822;37.330;2023-08-06T00:03:04;14.95;;;7.47;;
72941;SDS011;69665;55.822;37.330;2023-08-06T00:05:30;13.20;;;7.10;;
72941;SDS011;69665;55.822;37.330;2023-08-06T00:07:56;14.35;;;7.20;;
72941;SDS011;69665;55.822;37.330;2023-08-06T00:10:21;13.15;;;7.50;;
72941;SDS011;69665;55.822;37.330;2023-08-06T00:12:47;14.15;;;7.40;;
72941;SDS011;69665;55.822;37.330;2023-08-06T00:15:13;12.95;;;7.30;;
72941;SDS011;69665;55.822;37.330;2023-08-06T00:17:39;13.43;;;7.85;;
72941;SDS011;69665;55.822;37.330;2023-08-06T00:20:05;14.50;;;6.82;;
72941;SDS011;69665;55.822;37.330;2023-08-06T00:22:33;17.17;;;7.97;;
72941;SDS011;69665;55.822;37.330;2023-08-06T00:24:59;14.77;;;8.50;;
72941;SDS011;69665;55.822;37.330;2023-08-06T00:27:25;12.77;;;6.93;;
72941;SDS011;69665;55.822;37.330;2023-08-06T00:29:51;15.63;;;8.07;;
72941;SDS011;69665;55.822;37.330;2023-08-06T00:32:17;13.50;;;7.05;;
72941;SDS011;69665;55.822;37.330;2023-08-06T00:34:43;13.32;;;7.05;;
72941;SDS011;69665;55.822;37.330;2023-08-06T00:37:08;12.93;;;8.27;;
72941;SDS011;69665;55.822;37.330;2023-08-06T00:39:34;14.35;;;7.80;;
72941;SDS011;69665;55.822;37.330;2023-08-06T00:42:00;18.05;;;7.93;;
72941;SDS011;69665;55.822;37.330;2023-08-06T00:44:25;17.30;;;8.60;;
72941;SDS011;69665;55.822;37.330;2023-08-06T00:46:51;15.38;;;7.10;;
72941;SDS011;69665;55.822;37.330;2023-08-06T00:49:16;19.13;;;8.95;;
72941;SDS011;69665;55.822;37.330;2023-08-06T00:51:42;13.52;;;7.72;;
72941;SDS011;69665;55.822;37.330;2023-08-06T00:54:08;12.20;;;7.45;;
72941;SDS011;69665;55.822;37.330;2023-08-06T00:56:34;16.25;;;8.27;;
72941;SDS011;69665;55.822;37.330;2023-08-06T00:59:01;17.30;;;7.28;;
72941;SDS011;69665;55.822;37.330;2023-08-06T01:01:27;16.10;;;7.80;;
72941;SDS011;69665;55.822;37.330;2023-08-06T01:03:53;17.80;;;10.85;;
72941;SDS011;69665;55.822;37.330;2023-08-06T01:06:19;13.77;;;7.05;;
72941;SDS011;69665;55.822;37.330;2023-08-06T01:08:58;13.27;;;7.10;;
72941;SDS011;69665;55.822;37.330;2023-08-06T01:11:37;17.52;;;6.85;;
72941;SDS011;69665;55.822;37.330;2023-08-06T01:14:15;15.82;;;7.43;;
72941;SDS011;69665;55.822;37.330;2023-08-06T01:16:43;15.20;;;7.07;;
72941;SDS011;69665;55.822;37.330;2023-08-06T01:19:16;15.50;;;8.07;;
72941;SDS011;69665;55.822;37.330;2023-08-06T01:21:41;13.70;;;6.97;;
72941;SDS011;69665;55.822;37.330;2023-08-06T01:24:07;13.60;;;6.50;;
72941;SDS011;69665;55.822;37.330;2023-08-06T01:26:35;14.88;;;6.90;;
72941;SDS011;69665;55.822;37.330;2023-08-06T01:29:05;14.75;;;7.88;;
72941;SDS011;69665;55.822;37.330;2023-08-06T01:34:00;16.80;;;7.25;;
72941;SDS011;69665;55.822;37.330;2023-08-06T01:36:26;13.55;;;7.68;;
72941;SDS011;69665;55.822;37.330;2023-08-06T01:38:53;12.50;;;6.90;;
72941;SDS011;69665;55.822;37.330;2023-08-06T01:41:19;14.13;;;7.53;;
72941;SDS011;69665;55.822;37.330;2023-08-06T01:43:45;14.73;;;7.70;;
72941;SDS011;69665;55.822;37.330;2023-08-06T01:46:10;14.40;;;7.00;;
72941;SDS011;69665;55.822;37.330;2023-08-06T01:48:36;14.30;;;7.50;;
72941;SDS011;69665;55.822;37.330;2023-08-06T01:51:04;11.50;;;6.32;;
72941;SDS011;69665;55.822;37.330;2023-08-06T01:53:29;12.95;;;6.53;;
72941;SDS011;69665;55.822;37.330;2023-08-06T01:55:55;14.32;;;7.38;;
72941;SDS011;69665;55.822;37.330;2023-08-06T01:58:21;12.20;;;7.22;;
72941;SDS011;69665;55.822;37.330;2023-08-06T02:00:46;12.93;;;6.90;;
72941;SDS011;69665;55.822;37.330;2023-08-06T02:03:14;15.73;;;7.43;;
72941;SDS011;69665;55.822;37.330;2023-08-06T02:05:40;14.95;;;7.55;;
72941;SDS011;69665;55.822;37.330;2023-08-06T02:08:06;13.10;;;6.35;;
72941;SDS011;69665;55.822;37.330;2023-08-06T02:10:32;13.65;;;7.15;;
72941;SDS011;69665;55.822;37.330;2023-08-06T02:12:58;16.48;;;6.60;;
72941;SDS011;69665;55.822;37.330;2023-08-06T02:15:23;11.48;;;7.40;;
72941;SDS011;69665;55.822;37.330;2023-08-06T02:17:49;15.43;;;8.63;;
72941;SDS011;69665;55.822;37.330;2023-08-06T02:20:34;16.85;;;7.13;;
72941;SDS011;69665;55.822;37.330;2023-08-06T02:23:01;16.52;;;7.78;;
72941;SDS011;69665;55.822;37.330;2023-08-06T02:25:26;16.65;;;7.80;;
72941;SDS011;69665;55.822;37.330;2023-08-06T02:27:52;18.75;;;7.85;;
72941;SDS011;69665;55.822;37.330;2023-08-06T02:30:17;14.35;;;7.25;;
72941;SDS011;69665;55.822;37.330;2023-08-06T02:32:43;17.17;;;7.72;;
72941;SDS011;69665;55.822;37.330;2023-08-06T02:35:09;16.23;;;7.65;;
72941;SDS011;69665;55.822;37.330;2023-08-06T02:37:35;16.63;;;7.50;;
72941;SDS011;69665;55.822;37.330;2023-08-06T02:40:00;13.10;;;6.63;;
72941;SDS011;69665;55.822;37.330;2023-08-06T02:42:27;11.70;;;6.78;;
72941;SDS011;69665;55.822;37.330;2023-08-06T02:44:53;19.38;;;7.93;;
72941;SDS011;69665;55.822;37.330;2023-08-06T02:47:21;15.77;;;6.90;;
72941;SDS011;69665;55.822;37.330;2023-08-06T02:49:47;14.82;;;6.78;;
72941;SDS011;69665;55.822;37.330;2023-08-06T02:52:14;17.52;;;7.30;;
72941;SDS011;69665;55.822;37.330;2023-08-06T02:54:40;16.83;;;7.20;;
72941;SDS011;69665;55.822;37.330;2023-08-06T02:57:06;14.35;;;7.03;;
72941;SDS011;69665;55.822;37.330;2023-08-06T02:59:33;16.05;;;6.82;;
72941;SDS011;69665;55.822;37.330;2023-08-06T03:02:15;17.80;;;7.22;;
72941;SDS011;69665;55.822;37.330;2023-08-06T03:04:56;13.43;;;6.50;;
72941;SDS011;69665;55.822;37.330;2023-08-06T03:07:26;13.18;;;6.28;;
72941;SDS011;69665;55.822;37.330;2023-08-06T03:09:57;11.45;;;6.40;;
72941;SDS011;69665;55.822;37.330;2023-08-06T03:12:22;15.10;;;7.07;;
72941;SDS011;69665;55.822;37.330;2023-08-06T03:14:48;13.98;;;7.03;;
72941;SDS011;69665;55.822;37.330;2023-08-06T03:17:14;14.23;;;6.88;;
72941;SDS011;69665;55.822;37.330;2023-08-06T03:19:41;12.38;;;6.40;;
72941;SDS011;69665;55.822;37.330;2023-08-06T03:22:08;12.07;;;6.45;;
72941;SDS011;69665;55.822;37.330;2023-08-06T03:24:35;12.27;;;6.60;;
72941;SDS011;69665;55.822;37.330;2023-08-06T03:27:01;15.05;;;6.63;;
72941;SDS011;69665;55.822;37.330;2023-08-06T03:29:27;13.63;;;6.97;;
72941;SDS011;69665;55.822;37.330;2023-08-06T03:31:55;15.30;;;7.10;;
72941;SDS011;69665;55.822;37.330;2023-08-06T03:34:20;13.95;;;6.97;;
72941;SDS011;69665;55.822;37.330;2023-08-06T03:36:48;12.23;;;6.15;;
72941;SDS011;69665;55.822;37.330;2023-08-06T03:39:13;13.50;;;6.47;;
72941;SDS011;69665;55.822;37.330;2023-08-06T03:41:43;14.57;;;6.90;;
72941;SDS011;69665;55.822;37.330;2023-08-06T03:44:09;12.35;;;6.55;;
72941;SDS011;69665;55.822;37.330;2023-08-06T03:46:35;15.50;;;6.57;;
72941;SDS011;69665;55.822;37.330;2023-08-06T03:49:03;11.25;;;6.13;;
72941;SDS011;69665;55.822;37.330;2023-08-06T03:51:28;11.93;;;5.93;;
72941;SDS011;69665;55.822;37.330;2023-08-06T03:53:55;11.10;;;6.40;;
72941;SDS011;69665;55.822;37.330;2023-08-06T03:56:21;10.98;;;7.28;;
72941;SDS011;69665;55.822;37.330;2023-08-06T03:58:47;14.57;;;7.57;;
72941;SDS011;69665;55.822;37.330;2023-08-06T04:01:12;11.77;;;6.70;;
72941;SDS011;69665;55.822;37.330;2023-08-06T04:03:45;14.75;;;6.88;;
72941;SDS011;69665;55.822;37.330;2023-08-06T04:06:12;16.33;;;7.50;;
72941;SDS011;69665;55.822;37.330;2023-08-06T04:08:37;14.27;;;6.97;;
72941;SDS011;69665;55.822;37.330;2023-08-06T04:11:03;12.20;;;6.95;;
72941;SDS011;69665;55.822;37.330;2023-08-06T04:13:30;12.52;;;6.85;;
72941;SDS011;69665;55.822;37.330;2023-08-06T04:16:01;13.45;;;7.55;;
72941;SDS011;69665;55.822;37.330;2023-08-06T04:18:27;12.05;;;6.32;;
72941;SDS011;69665;55.822;37.330;2023-08-06T04:20:52;10.55;;;5.93;;
72941;SDS011;69665;55.822;37.330;2023-08-06T04:23:20;13.48;;;6.38;;
72941;SDS011;69665;55.822;37.330;2023-08-06T04:25:46;13.77;;;6.55;;
72941;SDS011;69665;55.822;37.330;2023-08-06T04:28:12;11.63;;;6.45;;
72941;SDS011;69665;55.822;37.330;2023-08-06T04:30:38;12.50;;;7.03;;
72941;SDS011;69665;55.822;37.330;2023-08-06T04:33:04;10.23;;;5.70;;
72941;SDS011;69665;55.822;37.330;2023-08-06T04:35:32;10.40;;;5.50;;
72941;SDS011;69665;55.822;37.330;2023-08-06T04:37:57;9.77;;;6.13;;
72941;SDS011;69665;55.822;37.330;2023-08-06T04:40:23;10.52;;;6.60;;
72941;SDS011;69665;55.822;37.330;2023-08-06T04:42:49;12.77;;;6.35;;
72941;SDS011;69665;55.822;37.330;2023-08-06T04:45:14;13.13;;;5.65;;
72941;SDS011;69665;55.822;37.330;2023-08-06T04:47:40;10.75;;;5.97;;
72941;SDS011;69665;55.822;37.330;2023-08-06T04:50:05;11.43;;;5.78;;
72941;SDS011;69665;55.822;37.330;2023-08-06T04:52:31;10.07;;;5.82;;
72941;SDS011;69665;55.822;37.330;2023-08-06T04:54:57;10.93;;;5.38;;
72941;SDS011;69665;55.822;37.330;2023-08-06T04:57:23;10.50;;;5.82;;
72941;SDS011;69665;55.822;37.330;2023-08-06T04:59:48;8.50;;;5.63;;
72941;SDS011;69665;55.822;37.330;2023-08-06T05:02:14;9.45;;;5.68;;
72941;SDS011;69665;55.822;37.330;2023-08-06T05:04:40;10.10;;;5.65;;
72941;SDS011;69665;55.822;37.330;2023-08-06T05:07:05;9.13;;;5.63;;
72941;SDS011;69665;55.822;37.330;2023-08-06T05:09:31;9.20;;;5.40;;
72941;SDS011;69665;55.822;37.330;2023-08-06T05:11:57;10.90;;;5.40;;
72941;SDS011;69665;55.822;37.330;2023-08-06T05:14:23;10.60;;;5.93;;
72941;SDS011;69665;55.822;37.330;2023-08-06T05:16:48;9.73;;;5.75;;
72941;SDS011;69665;55.822;37.330;2023-08-06T05:19:14;9.73;;;5.30;;
72941;SDS011;69665;55.822;37.330;2023-08-06T05:21:39;11.98;;;5.70;;
72941;SDS011;69665;55.822;37.330;2023-08-06T05:24:05;12.82;;;5.80;;
72941;SDS011;69665;55.822;37.330;2023-08-06T05:26:31;11.73;;;5.38;;
72941;SDS011;69665;55.822;37.330;2023-08-06T05:28:56;9.70;;;5.18;;
72941;SDS011;69665;55.822;37.330;2023-08-06T05:31:22;11.88;;;5.85;;
72941;SDS011;69665;55.822;37.330;2023-08-06T05:33:47;9.30;;;5.72;;
72941;SDS011;69665;55.822;37.330;2023-08-06T05:36:13;11.60;;;5.40;;
72941;SDS011;69665;55.822;37.330;2023-08-06T05:38:38;10.90;;;5.15;;
72941;SDS011;69665;55.822;37.330;2023-08-06T05:41:04;9.23;;;4.75;;
72941;SDS011;69665;55.822;37.330;2023-08-06T05:43:30;9.60;;;5.25;;
72941;SDS011;69665;55.822;37.330;2023-08-06T05:45:55;10.32;;;5.28;;
72941;SDS011;69665;55.822;37.330;2023-08-06T05:48:21;11.63;;;5.95;;
72941;SDS011;69665;55.822;37.330;2023-08-06T05:50:48;10.98;;;5.20;;
72941;SDS011;69665;55.822;37.330;2023-08-06T05:53:13;10.43;;;5.65;;
72941;SDS011;69665;55.822;37.330;2023-08-06T05:55:39;11.45;;;5.25;;
72941;SDS011;69665;55.822;37.330;2023-08-06T05:58:04;9.35;;;5.10;;
72941;SDS011;69665;55.822;37.330;2023-08-06T06:00:32;9.75;;;4.75;;
72941;SDS011;69665;55.822;37.330;2023-08-06T06:02:58;8.32;;;5.10;;
72941;SDS011;69665;55.822;37.330;2023-08-06T06:05:24;11.02;;;4.65;;
72941;SDS011;69665;55.822;37.330;2023-08-06T06:07:49;9.43;;;5.20;;
72941;SDS011;69665;55.822;37.330;2023-08-06T06:10:15;7.35;;;4.90;;
72941;SDS011;69665;55.822;37.330;2023-08-06T06:12:40;11.25;;;5.10;;
72941;SDS011;69665;55.822;37.330;2023-08-06T06:15:06;11.23;;;4.95;;
72941;SDS011;69665;55.822;37.330;2023-08-06T06:17:32;7.10;;;4.68;;
72941;SDS011;69665;55.822;37.330;2023-08-06T06:19:57;9.60;;;5.07;;
72941;SDS011;69665;55.822;37.330;2023-08-06T06:22:23;10.43;;;4.90;;
72941;SDS011;69665;55.822;37.330;2023-08-06T06:24:49;9.45;;;4.88;;
72941;SDS011;69665;55.822;37.330;2023-08-06T06:27:14;10.60;;;5.10;;
72941;SDS011;69665;55.822;37.330;2023-08-06T06:29:40;7.85;;;4.70;;
72941;SDS011;69665;55.822;37.330;2023-08-06T06:32:05;8.95;;;4.88;;
72941;SDS011;69665;55.822;37.330;2023-08-06T06:34:31;7.85;;;4.97;;
72941;SDS011;69665;55.822;37.330;2023-08-06T06:36:57;9.60;;;5.00;;
72941;SDS011;69665;55.822;37.330;2023-08-06T06:39:22;9.10;;;5.07;;
72941;SDS011;69665;55.822;37.330;2023-08-06T06:41:48;11.57;;;5.13;;
72941;SDS011;69665;55.822;37.330;2023-08-06T06:44:23;9.30;;;4.65;;
72941;SDS011;69665;55.822;37.330;2023-08-06T06:46:49;8.65;;;4.97;;
72941;SDS011;69665;55.822;37.330;2023-08-06T06:49:14;9.02;;;5.13;;
72941;SDS011;69665;55.822;37.330;2023-08-06T06:51:40;8.63;;;4.95;;
72941;SDS011;69665;55.822;37.330;2023-08-06T06:54:05;9.40;;;4.35;;
72941;SDS011;69665;55.822;37.330;2023-08-06T06:56:31;8.25;;;4.63;;
72941;SDS011;69665;55.822;37.330;2023-08-06T06:58:57;10.20;;;5.47;;
72941;SDS011;69665;55.822;37.330;2023-08-06T07:01:22;9.27;;;4.47;;
72941;SDS011;69665;55.822;37.330;2023-08-06T07:03:48;9.98;;;4.57;;
72941;SDS011;69665;55.822;37.330;2023-08-06T07:06:13;9.30;;;4.50;;
72941;SDS011;69665;55.822;37.330;2023-08-06T07:08:41;7.82;;;4.40;;
72941;SDS011;69665;55.822;37.330;2023-08-06T07:11:06;9.23;;;5.10;;
72941;SDS011;69665;55.822;37.330;2023-08-06T07:13:33;10.82;;;4.72;;
72941;SDS011;69665;55.822;37.330;2023-08-06T07:15:59;9.73;;;4.25;;
72941;SDS011;69665;55.822;37.330;2023-08-06T07:18:24;7.63;;;4.28;;
72941;SDS011;69665;55.822;37.330;2023-08-06T07:20:50;8.75;;;4.70;;
72941;SDS011;69665;55.822;37.330;2023-08-06T07:23:23;8.35;;;4.15;;
72941;SDS011;69665;55.822;37.330;2023-08-06T07:25:49;8.93;;;4.53;;
72941;SDS011;69665;55.822;37.330;2023-08-06T07:28:15;8.73;;;4.35;;
72941;SDS011;69665;55.822;37.330;2023-08-06T07:30:41;9.88;;;4.32;;
72941;SDS011;69665;55.822;37.330;2023-08-06T07:33:07;8.30;;;4.25;;
72941;SDS011;69665;55.822;37.330;2023-08-06T07:35:32;9.25;;;4.78;;
72941;SDS011;69665;55.822;37.330;2023-08-06T07:37:58;9.18;;;4.72;;
72941;SDS011;69665;55.822;37.330;2023-08-06T07:40:24;9.23;;;4.22;;
72941;SDS011;69665;55.822;37.330;2023-08-06T07:42:49;6.93;;;4.05;;
72941;SDS011;69665;55.822;37.330;2023-08-06T07:45:15;7.75;;;4.70;;
72941;SDS011;69665;55.822;37.330;2023-08-06T07:47:43;7.60;;;3.95;;
72941;SDS011;69665;55.822;37.330;2023-08-06T07:50:09;7.68;;;4.13;;
72941;SDS011;69665;55.822;37.330;2023-08-06T07:52:35;8.35;;;4.35;;
72941;SDS011;69665;55.822;37.330;2023-08-06T07:55:00;8.98;;;4.43;;
72941;SDS011;69665;55.822;37.330;2023-08-06T07:57:31;7.72;;;4.25;;
72941;SDS011;69665;55.822;37.330;2023-08-06T07:59:57;8.65;;;4.20;;
72941;SDS011;69665;55.822;37.330;2023-08-06T08:02:24;9.32;;;4.15;;
72941;SDS011;69665;55.822;37.330;2023-08-06T08:04:49;7.82;;;4.00;;
72941;SDS011;69665;55.822;37.330;2023-08-06T08:07:15;9.25;;;4.22;;
72941;SDS011;69665;55.822;37.330;2023-08-06T08:09:40;7.07;;;3.42;;
72941;SDS011;69665;55.822;37.330;2023-08-06T08:12:06;7.90;;;4.18;;
72941;SDS011;69665;55.822;37.330;2023-08-06T08:14:32;9.18;;;4.40;;
72941;SDS011;69665;55.822;37.330;2023-08-06T08:17:01;6.70;;;4.15;;
72941;SDS011;69665;55.822;37.330;2023-08-06T08:19:27;7.20;;;4.18;;
72941;SDS011;69665;55.822;37.330;2023-08-06T08:21:53;7.07;;;4.32;;
72941;SDS011;69665;55.822;37.330;2023-08-06T08:24:21;8.40;;;4.25;;
72941;SDS011;69665;55.822;37.330;2023-08-06T08:26:49;8.13;;;4.47;;
72941;SDS011;69665;55.822;37.330;2023-08-06T08:29:15;9.40;;;4.05;;
72941;SDS011;69665;55.822;37.330;2023-08-06T08:31:41;6.97;;;3.95;;
72941;SDS011;69665;55.822;37.330;2023-08-06T08:34:06;9.02;;;3.80;;
72941;SDS011;69665;55.822;37.330;2023-08-06T08:36:32;6.97;;;4.15;;
72941;SDS011;69665;55.822;37.330;2023-08-06T08:38:57;8.73;;;4.68;;
72941;SDS011;69665;55.822;37.330;2023-08-06T08:41:24;7.85;;;4.35;;
72941;SDS011;69665;55.822;37.330;2023-08-06T08:43:50;7.32;;;4.35;;
72941;SDS011;69665;55.822;37.330;2023-08-06T08:46:17;7.43;;;4.63;;
72941;SDS011;69665;55.822;37.330;2023-08-06T08:48:43;12.63;;;4.60;;
72941;SDS011;69665;55.822;37.330;2023-08-06T08:51:09;12.07;;;4.93;;
72941;SDS011;69665;55.822;37.330;2023-08-06T08:53:36;8.68;;;4.90;;
72941;SDS011;69665;55.822;37.330;2023-08-06T08:56:05;8.68;;;4.90;;
72941;SDS011;69665;55.822;37.330;2023-08-06T08:58:31;10.75;;;4.82;;
72941;SDS011;69665;55.822;37.330;2023-08-06T09:00:56;10.80;;;5.10;;
72941;SDS011;69665;55.822;37.330;2023-08-06T09:03:23;11.52;;;5.47;;
72941;SDS011;69665;55.822;37.330;2023-08-06T09:05:49;8.57;;;4.85;;
72941;SDS011;69665;55.822;37.330;2023-08-06T09:08:21;8.65;;;4.78;;
72941;SDS011;69665;55.822;37.330;2023-08-06T09:10:49;10.02;;;4.70;;
72941;SDS011;69665;55.822;37.330;2023-08-06T09:13:15;8.27;;;5.22;;
72941;SDS011;69665;55.822;37.330;2023-08-06T09:15:45;8.05;;;4.75;;
72941;SDS011;69665;55.822;37.330;2023-08-06T09:18:11;11.60;;;5.18;;
72941;SDS011;69665;55.822;37.330;2023-08-06T09:20:38;7.93;;;5.10;;
72941;SDS011;69665;55.822;37.330;2023-08-06T09:23:07;9.85;;;4.72;;
72941;SDS011;69665;55.822;37.330;2023-08-06T09:25:32;9.68;;;4.65;;
72941;SDS011;69665;55.822;37.330;2023-08-06T09:27:58;8.40;;;4.82;;
72941;SDS011;69665;55.822;37.330;2023-08-06T09:30:33;10.77;;;6.47;;
72941;SDS011;69665;55.822;37.330;2023-08-06T09:33:00;9.27;;;5.28;;
72941;SDS011;69665;55.822;37.330;2023-08-06T09:35:29;7.85;;;4.68;;
72941;SDS011;69665;55.822;37.330;2023-08-06T09:37:55;8.45;;;5.35;;
72941;SDS011;69665;55.822;37.330;2023-08-06T09:40:24;7.07;;;4.95;;
72941;SDS011;69665;55.822;37.330;2023-08-06T09:42:50;8.63;;;5.47;;
72941;SDS011;69665;55.822;37.330;2023-08-06T09:45:19;10.52;;;5.35;;
72941;SDS011;69665;55.822;37.330;2023-08-06T09:47:47;8.13;;;5.25;;
72941;SDS011;69665;55.822;37.330;2023-08-06T09:50:17;9.88;;;5.22;;
72941;SDS011;69665;55.822;37.330;2023-08-06T09:52:43;9.40;;;5.50;;
72941;SDS011;69665;55.822;37.330;2023-08-06T09:55:10;8.85;;;5.10;;
72941;SDS011;69665;55.822;37.330;2023-08-06T09:57:37;6.93;;;4.97;;
72941;SDS011;69665;55.822;37.330;2023-08-06T10:00:03;10.80;;;4.88;;
72941;SDS011;69665;55.822;37.330;2023-08-06T10:02:39;8.45;;;5.00;;
72941;SDS011;69665;55.822;37.330;2023-08-06T10:05:05;10.50;;;5.30;;
72941;SDS011;69665;55.822;37.330;2023-08-06T10:07:31;10.40;;;5.10;;
72941;SDS011;69665;55.822;37.330;2023-08-06T10:09:56;7.47;;;5.45;;
72941;SDS011;69665;55.822;37.330;2023-08-06T10:12:22;8.85;;;5.78;;
72941;SDS011;69665;55.822;37.330;2023-08-06T10:14:51;9.60;;;5.32;;
72941;SDS011;69665;55.822;37.330;2023-08-06T10:17:19;9.55;;;5.55;;
72941;SDS011;69665;55.822;37.330;2023-08-06T10:19:45;12.25;;;5.25;;
72941;SDS011;69665;55.822;37.330;2023-08-06T10:22:17;8.75;;;4.80;;
72941;SDS011;69665;55.822;37.330;2023-08-06T10:27:12;10.27;;;5.55;;
72941;SDS011;69665;55.822;37.330;2023-08-06T10:29:37;8.52;;;5.10;;
72941;SDS011;69665;55.822;37.330;2023-08-06T10:32:03;9.23;;;5.40;;
72941;SDS011;69665;55.822;37.330;2023-08-06T10:37:16;8.40;;;5.30;;
72941;SDS011;69665;55.822;37.330;2023-08-06T10:39:48;10.70;;;5.47;;
72941;SDS011;69665;55.822;37.330;2023-08-06T10:42:20;8.25;;;5.63;;
72941;SDS011;69665;55.822;37.330;2023-08-06T10:47:30;8.60;;;5.32;;
72941;SDS011;69665;55.822;37.330;2023-08-06T10:50:03;9.73;;;5.75;;
72941;SDS011;69665;55.822;37.330;2023-08-06T10:52:29;10.45;;;5.70;;
72941;SDS011;69665;55.822;37.330;2023-08-06T10:54:55;12.05;;;5.65;;
72941;SDS011;69665;55.822;37.330;2023-08-06T10:57:20;9.23;;;5.63;;
72941;SDS011;69665;55.822;37.330;2023-08-06T10:59:46;9.90;;;6.25;;
72941;SDS011;69665;55.822;37.330;2023-08-06T11:02:11;8.38;;;5.45;;
72941;SDS011;69665;55.822;37.330;2023-08-06T11:04:37;12.45;;;5.72;;
72941;SDS011;69665;55.822;37.330;2023-08-06T11:07:03;10.48;;;5.78;;
72941;SDS011;69665;55.822;37.330;2023-08-06T11:09:29;12.20;;;5.82;;
72941;SDS011;69665;55.822;37.330;2023-08-06T11:11:54;9.05;;;5.88;;
72941;SDS011;69665;55.822;37.330;2023-08-06T11:14:20;8.98;;;5.43;;
72941;SDS011;69665;55.822;37.330;2023-08-06T11:16:46;10.23;;;5.57;;
72941;SDS011;69665;55.822;37.330;2023-08-06T11:19:12;7.65;;;5.75;;
72941;SDS011;69665;55.822;37.330;2023-08-06T11:21:40;9.00;;;5.70;;
72941;SDS011;69665;55.822;37.330;2023-08-06T11:24:06;10.32;;;5.85;;
72941;SDS011;69665;55.822;37.330;2023-08-06T11:26:31;8.98;;;5.68;;
72941;SDS011;69665;55.822;37.330;2023-08-06T11:28:57;10.25;;;5.43;;
72941;SDS011;69665;55.822;37.330;2023-08-06T11:31:23;11.98;;;5.53;;
72941;SDS011;69665;55.822;37.330;2023-08-06T11:33:52;10.18;;;5.80;;
72941;SDS011;69665;55.822;37.330;2023-08-06T11:38:43;10.75;;;6.28;;
72941;SDS011;69665;55.822;37.330;2023-08-06T11:41:09;9.45;;;5.80;;
72941;SDS011;69665;55.822;37.330;2023-08-06T11:43:34;8.32;;;5.80;;
72941;SDS011;69665;55.822;37.330;2023-08-06T11:46:00;9.23;;;5.65;;
72941;SDS011;69665;55.822;37.330;2023-08-06T11:48:25;9.40;;;5.72;;
72941;SDS011;69665;55.822;37.330;2023-08-06T11:50:54;8.20;;;5.43;;
72941;SDS011;69665;55.822;37.330;2023-08-06T11:53:19;8.93;;;5.82;;
72941;SDS011;69665;55.822;37.330;2023-08-06T11:55:45;12.02;;;6.50;;
72941;SDS011;69665;55.822;37.330;2023-08-06T11:58:11;10.90;;;6.63;;
72941;SDS011;69665;55.822;37.330;2023-08-06T12:00:40;11.65;;;6.03;;
72941;SDS011;69665;55.822;37.330;2023-08-06T12:03:05;10.20;;;6.47;;
72941;SDS011;69665;55.822;37.330;2023-08-06T12:05:31;10.75;;;5.95;;
72941;SDS011;69665;55.822;37.330;2023-08-06T12:07:59;9.27;;;5.60;;
72941;SDS011;69665;55.822;37.330;2023-08-06T12:10:25;8.57;;;5.25;;
72941;SDS011;69665;55.822;37.330;2023-08-06T12:12:51;9.40;;;5.53;;
72941;SDS011;69665;55.822;37.330;2023-08-06T12:15:18;11.15;;;6.57;;
72941;SDS011;69665;55.822;37.330;2023-08-06T12:17:43;9.20;;;5.63;;
72941;SDS011;69665;55.822;37.330;2023-08-06T12:20:10;7.95;;;5.35;;
72941;SDS011;69665;55.822;37.330;2023-08-06T12:22:36;11.23;;;5.95;;
72941;SDS011;69665;55.822;37.330;2023-08-06T12:25:03;12.65;;;7.22;;
72941;SDS011;69665;55.822;37.330;2023-08-06T12:27:29;10.68;;;5.63;;
72941;SDS011;69665;55.822;37.330;2023-08-06T12:29:55;10.27;;;6.28;;
72941;SDS011;69665;55.822;37.330;2023-08-06T12:32:21;9.55;;;5.85;;
72941;SDS011;69665;55.822;37.330;2023-08-06T12:34:47;9.07;;;5.80;;
72941;SDS011;69665;55.822;37.330;2023-08-06T12:37:12;9.57;;;5.80;;
72941;SDS011;69665;55.822;37.330;2023-08-06T12:39:38;8.98;;;5.90;;
72941;SDS011;69665;55.822;37.330;2023-08-06T12:42:04;9.68;;;5.80;;
72941;SDS011;69665;55.822;37.330;2023-08-06T12:44:30;10.40;;;6.28;;
72941;SDS011;69665;55.822;37.330;2023-08-06T12:46:56;10.20;;;5.40;;
72941;SDS011;69665;55.822;37.330;2023-08-06T12:49:22;8.88;;;5.75;;
72941;SDS011;69665;55.822;37.330;2023-08-06T12:51:48;8.35;;;5.75;;
72941;SDS011;69665;55.822;37.330;2023-08-06T12:54:14;12.70;;;4.97;;
72941;SDS011;69665;55.822;37.330;2023-08-06T12:56:40;6.97;;;4.93;;
72941;SDS011;69665;55.822;37.330;2023-08-06T12:59:05;7.93;;;5.90;;
72941;SDS011;69665;55.822;37.330;2023-08-06T13:01:31;8.48;;;5.55;;
72941;SDS011;69665;55.822;37.330;2023-08-06T13:03:57;11.75;;;5.80;;
72941;SDS011;69665;55.822;37.330;2023-08-06T13:06:23;10.07;;;5.57;;
72941;SDS011;69665;55.822;37.330;2023-08-06T13:08:48;8.55;;;5.50;;
72941;SDS011;69665;55.822;37.330;2023-08-06T13:11:14;10.27;;;4.85;;
72941;SDS011;69665;55.822;37.330;2023-08-06T13:13:39;9.07;;;5.25;;
72941;SDS011;69665;55.822;37.330;2023-08-06T13:16:05;8.80;;;6.00;;
72941;SDS011;69665;55.822;37.330;2023-08-06T13:18:30;11.20;;;5.80;;
72941;SDS011;69665;55.822;37.330;2023-08-06T13:20:56;10.45;;;5.50;;
72941;SDS011;69665;55.822;37.330;2023-08-06T13:23:22;10.88;;;5.35;;
72941;SDS011;69665;55.822;37.330;2023-08-06T13:25:47;10.38;;;5.63;;
72941;SDS011;69665;55.822;37.330;2023-08-06T13:28:13;8.05;;;5.30;;
72941;SDS011;69665;55.822;37.330;2023-08-06T13:30:43;9.20;;;5.18;;
72941;SDS011;69665;55.822;37.330;2023-08-06T13:33:09;10.15;;;5.47;;
72941;SDS011;69665;55.822;37.330;2023-08-06T13:35:35;8.10;;;5.05;;
72941;SDS011;69665;55.822;37.330;2023-08-06T13:38:00;11.95;;;5.15;;
72941;SDS011;69665;55.822;37.330;2023-08-06T13:40:32;7.40;;;5.00;;
72941;SDS011;69665;55.822;37.330;2023-08-06T13:42:57;7.80;;;4.93;;
72941;SDS011;69665;55.822;37.330;2023-08-06T13:45:23;11.40;;;5.22;;
72941;SDS011;69665;55.822;37.330;2023-08-06T13:47:49;7.68;;;4.82;;
72941;SDS011;69665;55.822;37.330;2023-08-06T13:50:14;8.15;;;4.95;;
72941;SDS011;69665;55.822;37.330;2023-08-06T13:52:40;8.35;;;5.53;;
72941;SDS011;69665;55.822;37.330;2023-08-06T13:55:06;10.05;;;5.53;;
72941;SDS011;69665;55.822;37.330;2023-08-06T13:57:32;9.60;;;5.90;;
72941;SDS011;69665;55.822;37.330;2023-08-06T13:59:57;9.63;;;5.70;;
72941;SDS011;69665;55.822;37.330;2023-08-06T14:02:23;10.30;;;4.93;;
72941;SDS011;69665;55.822;37.330;2023-08-06T14:04:49;10.60;;;5.22;;
72941;SDS011;69665;55.822;37.330;2023-08-06T14:07:14;8.90;;;5.28;;
72941;SDS011;69665;55.822;37.330;2023-08-06T14:09:40;7.97;;;5.30;;
72941;SDS011;69665;55.822;37.330;2023-08-06T14:12:07;10.10;;;5.75;;
72941;SDS011;69665;55.822;37.330;2023-08-06T14:14:33;8.07;;;5.50;;
72941;SDS011;69665;55.822;37.330;2023-08-06T14:16:59;12.52;;;6.00;;
72941;SDS011;69665;55.822;37.330;2023-08-06T14:19:24;7.10;;;5.20;;
72941;SDS011;69665;55.822;37.330;2023-08-06T14:21:50;7.93;;;5.55;;
72941;SDS011;69665;55.822;37.330;2023-08-06T14:24:15;11.45;;;5.57;;
72941;SDS011;69665;55.822;37.330;2023-08-06T14:26:41;12.27;;;6.03;;
72941;SDS011;69665;55.822;37.330;2023-08-06T14:29:07;9.27;;;5.50;;
72941;SDS011;69665;55.822;37.330;2023-08-06T14:31:33;9.75;;;5.78;;
72941;SDS011;69665;55.822;37.330;2023-08-06T14:33:58;9.57;;;5.47;;
72941;SDS011;69665;55.822;37.330;2023-08-06T14:36:24;9.55;;;5.60;;